sensor_id;sensor_type;location;lat;lon;timestamp;pressure;altitude;pressure_sealevel;temperature;humidity
25664;BME280;13522;50.018;20.014;2022-12-18T00:02:18;100350.95;;;-3.94;100.00
25664;BME280;13522;50.018;20.014;2022-12-18T00:05:30;100358.75;;;-3.97;100.00
25664;BME280;13522;50.018;20.014;2022-12-18T00:08:42;100364.80;;;-3.97;100.00
25664;BME280;13522;50.018;20.014;2022-12-18T00:11:54;100358.75;;;-3.97;100.00
25664;BME280;13522;50.018;20.014;2022-12-18T00:15:09;100367.47;;;-4.06;100.00
25664;BME280;13522;50.018;20.014;2022-12-18T00:18:22;100383.00;;;-4.01;100.00
25664;BME280;13522;50.018;20.014;2022-12-18T00:21:34;100381.30;;;-4.02;100.00
25664;BME280;13522;50.018;20.014;2022-12-18T00:24:47;100392.55;;;-4.05;100.00
25664;BME280;13522;50.018;20.014;2022-12-18T00:27:59;100394.23;;;-3.99;100.00
25664;BME280;13522;50.018;20.014;2022-12-18T00:31:13;100401.20;;;-4.04;100.00
25664;BME280;13522;50.018;20.014;2022-12-18T00:34:26;100403.83;;;-4.09;100.00
25664;BME280;13522;50.018;20.014;2022-12-18T00:37:38;100398.59;;;-4.03;100.00
25664;BME280;13522;50.018;20.014;2022-12-18T00:40:50;100402.04;;;-4.04;100.00
25664;BME280;13522;50.018;20.014;2022-12-18T00:44:02;100409.82;;;-4.04;100.00
25664;BME280;13522;50.018;20.014;2022-12-18T00:47:15;100413.27;;;-4.02;100.00
25664;BME280;13522;50.018;20.014;2022-12-18T00:50:27;100415.01;;;-4.04;100.00
25664;BME280;13522;50.018;20.014;2022-12-18T00:53:39;100425.38;;;-4.01;100.00
25664;BME280;13522;50.018;20.014;2022-12-18T00:56:51;100427.95;;;-3.96;100.00
25664;BME280;13522;50.018;20.014;2022-12-18T01:00:05;100432.28;;;-3.98;100.00
25664;BME280;13522;50.018;20.014;2022-12-18T01:03:19;100436.63;;;-4.00;100.00
25664;BME280;13522;50.018;20.014;2022-12-18T01:06:31;100436.60;;;-3.99;100.00
25664;BME280;13522;50.018;20.014;2022-12-18T01:09:45;100439.20;;;-3.99;100.00
25664;BME280;13522;50.018;20.014;2022-12-18T01:12:57;100448.70;;;-3.96;100.00
25664;BME280;13522;50.018;20.014;2022-12-18T01:16:10;100445.26;;;-3.98;100.00
25664;BME280;13522;50.018;20.014;2022-12-18T01:19:23;100453.90;;;-3.99;100.00
25664;BME280;13522;50.018;20.014;2022-12-18T01:22:36;100453.94;;;-4.02;100.00
25664;BME280;13522;50.018;20.014;2022-12-18T01:25:48;100457.38;;;-4.00;100.00
25664;BME280;13522;50.018;20.014;2022-12-18T01:29:00;100457.38;;;-4.00;100.00
25664;BME280;13522;50.018;20.014;2022-12-18T01:32:12;100455.64;;;-3.98;100.00
25664;BME280;13522;50.018;20.014;2022-12-18T01:35:24;100458.19;;;-3.95;100.00
25664;BME280;13522;50.018;20.014;2022-12-18T01:38:36;100470.30;;;-3.96;100.00
25664;BME280;13522;50.018;20.014;2022-12-18T01:41:48;100471.19;;;-3.97;100.00
25664;BME280;13522;50.018;20.014;2022-12-18T01:45:27;100472.08;;;-4.01;100.00
25664;BME280;13522;50.018;20.014;2022-12-18T01:48:40;100472.91;;;-3.97;100.00
25664;BME280;13522;50.018;20.014;2022-12-18T01:51:53;100477.22;;;-3.95;100.00
25664;BME280;13522;50.018;20.014;2022-12-18T01:55:07;100479.83;;;-3.98;100.00
25664;BME280;13522;50.018;20.014;2022-12-18T01:58:21;100478.97;;;-4.00;100.00
25664;BME280;13522;50.018;20.014;2022-12-18T02:01:38;100480.67;;;-3.96;100.00
25664;BME280;13522;50.018;20.014;2022-12-18T02:04:50;100487.64;;;-4.01;100.00
25664;BME280;13522;50.018;20.014;2022-12-18T02:08:07;100490.26;;;-4.02;100.00
25664;BME280;13522;50.018;20.014;2022-12-18T02:11:27;100490.26;;;-4.02;100.00
25664;BME280;13522;50.018;20.014;2022-12-18T02:14:44;100501.48;;;-4.00;100.00
25664;BME280;13522;50.018;20.014;2022-12-18T02:18:02;100507.49;;;-3.95;100.00
25664;BME280;13522;50.018;20.014;2022-12-18T02:21:20;100509.23;;;-3.97;100.00
25664;BME280;13522;50.018;20.014;2022-12-18T02:24:38;100522.19;;;-3.96;100.00
25664;BME280;13522;50.018;20.014;2022-12-18T02:27:53;100535.18;;;-3.94;100.00
25664;BME280;13522;50.018;20.014;2022-12-18T02:31:11;100524.80;;;-3.94;100.00
25664;BME280;13522;50.018;20.014;2022-12-18T02:34:29;100533.44;;;-3.95;100.00
25664;BME280;13522;50.018;20.014;2022-12-18T02:37:43;100534.29;;;-3.93;100.00
25664;BME280;13522;50.018;20.014;2022-12-18T02:40:59;100529.95;;;-3.91;100.00
25664;BME280;13522;50.018;20.014;2022-12-18T02:44:14;100544.67;;;-3.93;100.00
25664;BME280;13522;50.018;20.014;2022-12-18T02:47:29;100553.28;;;-3.87;100.00
25664;BME280;13522;50.018;20.014;2022-12-18T02:50:48;100555.02;;;-3.87;100.00
25664;BME280;13522;50.018;20.014;2022-12-18T02:54:05;100555.91;;;-3.91;100.00
25664;BME280;13522;50.018;20.014;2022-12-18T02:57:22;100555.90;;;-3.88;100.00
25664;BME280;13522;50.018;20.014;2022-12-18T03:00:41;100565.42;;;-3.90;100.00
25664;BME280;13522;50.018;20.014;2022-12-18T03:03:59;100558.53;;;-3.94;100.00
25664;BME280;13522;50.018;20.014;2022-12-18T03:07:17;100561.11;;;-3.96;100.00
25664;BME280;13522;50.018;20.014;2022-12-18T03:10:37;100560.27;;;-3.96;100.00
25664;BME280;13522;50.018;20.014;2022-12-18T03:13:49;100568.91;;;-3.97;100.00
25664;BME280;13522;50.018;20.014;2022-12-18T03:17:04;100574.14;;;-4.00;100.00
25664;BME280;13522;50.018;20.014;2022-12-18T03:20:20;100575.88;;;-4.02;100.00
25664;BME280;13522;50.018;20.014;2022-12-18T03:23:36;100574.98;;;-4.01;100.00
25664;BME280;13522;50.018;20.014;2022-12-18T03:26:54;100581.92;;;-4.00;100.00
25664;BME280;13522;50.018;20.014;2022-12-18T03:30:11;100582.76;;;-4.00;100.00
25664;BME280;13522;50.018;20.014;2022-12-18T03:33:27;100591.42;;;-4.01;100.00
25664;BME280;13522;50.018;20.014;2022-12-18T03:36:41;100589.69;;;-3.99;100.00
25664;BME280;13522;50.018;20.014;2022-12-18T03:39:54;100592.28;;;-3.99;100.00
25664;BME280;13522;50.018;20.014;2022-12-18T03:43:10;100597.44;;;-3.96;100.00
25664;BME280;13522;50.018;20.014;2022-12-18T03:46:29;100600.05;;;-3.97;100.00
25664;BME280;13522;50.018;20.014;2022-12-18T03:49:50;100606.98;;;-3.99;100.00
25664;BME280;13522;50.018;20.014;2022-12-18T03:53:13;100615.62;;;-3.97;100.00
25664;BME280;13522;50.018;20.014;2022-12-18T03:56:33;100606.13;;;-3.98;100.00
25664;BME280;13522;50.018;20.014;2022-12-18T03:59:55;100606.13;;;-4.01;100.00
25664;BME280;13522;50.018;20.014;2022-12-18T04:03:09;100611.31;;;-3.98;100.00
25664;BME280;13522;50.018;20.014;2022-12-18T04:06:24;100616.47;;;-3.95;100.00
25664;BME280;13522;50.018;20.014;2022-12-18T04:09:38;100626.82;;;-3.89;100.00
25664;BME280;13522;50.018;20.014;2022-12-18T04:12:51;100621.66;;;-3.95;100.00
25664;BME280;13522;50.018;20.014;2022-12-18T04:16:08;100630.33;;;-3.99;100.00
25664;BME280;13522;50.018;20.014;2022-12-18T04:19:21;100627.73;;;-3.99;100.00
25664;BME280;13522;50.018;20.014;2022-12-18T04:22:34;100633.81;;;-4.03;100.00
25664;BME280;13522;50.018;20.014;2022-12-18T04:25:46;100632.10;;;-4.04;100.00
25664;BME280;13522;50.018;20.014;2022-12-18T04:29:01;100633.83;;;-4.05;100.00
25664;BME280;13522;50.018;20.014;2022-12-18T04:32:13;100632.08;;;-4.06;100.00
25664;BME280;13522;50.018;20.014;2022-12-18T04:35:25;100638.17;;;-4.08;100.00
25664;BME280;13522;50.018;20.014;2022-12-18T04:38:38;100645.95;;;-4.11;100.00
25664;BME280;13522;50.018;20.014;2022-12-18T04:41:52;100652.88;;;-4.13;100.00
25664;BME280;13522;50.018;20.014;2022-12-18T04:45:05;100660.67;;;-4.15;100.00
25664;BME280;13522;50.018;20.014;2022-12-18T04:48:18;100656.34;;;-4.16;100.00
25664;BME280;13522;50.018;20.014;2022-12-18T04:51:30;100659.80;;;-4.15;100.00
25664;BME280;13522;50.018;20.014;2022-12-18T04:54:42;100664.17;;;-4.22;100.00
25664;BME280;13522;50.018;20.014;2022-12-18T04:57:54;100676.24;;;-4.19;100.00
25664;BME280;13522;50.018;20.014;2022-12-18T05:01:07;100678.86;;;-4.22;100.00
25664;BME280;13522;50.018;20.014;2022-12-18T05:04:19;100675.38;;;-4.17;100.00
25664;BME280;13522;50.018;20.014;2022-12-18T05:07:31;100685.77;;;-4.21;100.00
25664;BME280;13522;50.018;20.014;2022-12-18T05:10:43;100678.84;;;-4.19;100.00
25664;BME280;13522;50.018;20.014;2022-12-18T05:13:55;100689.23;;;-4.22;100.00
25664;BME280;13522;50.018;20.014;2022-12-18T05:17:06;100689.23;;;-4.22;100.00
25664;BME280;13522;50.018;20.014;2022-12-18T05:20:18;100690.11;;;-4.26;100.00
25664;BME280;13522;50.018;20.014;2022-12-18T05:23:31;100687.52;;;-4.26;100.00
25664;BME280;13522;50.018;20.014;2022-12-18T05:26:47;100698.76;;;-4.29;100.00
25664;BME280;13522;50.018;20.014;2022-12-18T05:30:00;100703.95;;;-4.26;100.00
25664;BME280;13522;50.018;20.014;2022-12-18T05:33:12;100708.23;;;-4.17;100.00
25664;BME280;13522;50.018;20.014;2022-12-18T05:36:24;100703.94;;;-4.20;100.00
25664;BME280;13522;50.018;20.014;2022-12-18T05:39:36;100703.93;;;-4.23;100.00
25664;BME280;13522;50.018;20.014;2022-12-18T05:42:48;100705.66;;;-4.23;100.00
25664;BME280;13522;50.018;20.014;2022-12-18T05:46:04;100709.98;;;-4.22;100.00
25664;BME280;13522;50.018;20.014;2022-12-18T05:49:17;100718.63;;;-4.23;100.00
25664;BME280;13522;50.018;20.014;2022-12-18T05:52:29;100716.89;;;-4.21;100.00
25664;BME280;13522;50.018;20.014;2022-12-18T05:55:42;100721.23;;;-4.20;100.00
25664;BME280;13522;50.018;20.014;2022-12-18T05:58:55;100729.85;;;-4.17;100.00
25664;BME280;13522;50.018;20.014;2022-12-18T06:02:07;100733.30;;;-4.13;100.00
25664;BME280;13522;50.018;20.014;2022-12-18T06:05:20;100739.38;;;-4.19;100.00
25664;BME280;13522;50.018;20.014;2022-12-18T06:08:32;100745.44;;;-4.20;100.00
25664;BME280;13522;50.018;20.014;2022-12-18T06:11:46;100752.31;;;-4.16;100.00
25664;BME280;13522;50.018;20.014;2022-12-18T06:14:58;100754.94;;;-4.14;100.00
25664;BME280;13522;50.018;20.014;2022-12-18T06:18:10;100761.86;;;-4.16;100.00
25664;BME280;13522;50.018;20.014;2022-12-18T06:21:21;100765.32;;;-4.20;100.00
25664;BME280;13522;50.018;20.014;2022-12-18T06:24:34;100748.89;;;-4.27;100.00
25664;BME280;13522;50.018;20.014;2022-12-18T06:27:48;100754.05;;;-4.18;100.00
25664;BME280;13522;50.018;20.014;2022-12-18T06:31:00;100759.26;;;-4.21;100.00
25664;BME280;13522;50.018;20.014;2022-12-18T06:34:15;100760.99;;;-4.23;100.00
25664;BME280;13522;50.018;20.014;2022-12-18T06:37:27;100767.06;;;-4.24;100.00
25664;BME280;13522;50.018;20.014;2022-12-18T06:40:39;100761.88;;;-4.28;100.00
25664;BME280;13522;50.018;20.014;2022-12-18T06:43:51;100771.34;;;-4.14;100.00
25664;BME280;13522;50.018;20.014;2022-12-18T06:47:05;100781.71;;;-4.14;100.00
25664;BME280;13522;50.018;20.014;2022-12-18T06:50:17;100786.05;;;-4.17;100.00
25664;BME280;13522;50.018;20.014;2022-12-18T06:53:29;100792.11;;;-4.21;100.00
25664;BME280;13522;50.018;20.014;2022-12-18T06:56:41;100793.84;;;-4.19;100.00
25664;BME280;13522;50.018;20.014;2022-12-18T06:59:56;100805.08;;;-4.12;100.00
25664;BME280;13522;50.018;20.014;2022-12-18T07:03:08;100805.07;;;-4.15;100.00
25664;BME280;13522;50.018;20.014;2022-12-18T07:06:23;100811.98;;;-4.16;100.00
25664;BME280;13522;50.018;20.014;2022-12-18T07:09:36;100810.27;;;-4.12;100.00
25664;BME280;13522;50.018;20.014;2022-12-18T07:12:48;100815.44;;;-4.09;100.00
25664;BME280;13522;50.018;20.014;2022-12-18T07:16:07;100823.21;;;-4.08;100.00
25664;BME280;13522;50.018;20.014;2022-12-18T07:19:22;100820.63;;;-4.00;100.00
25664;BME280;13522;50.018;20.014;2022-12-18T07:22:35;100831.85;;;-4.00;100.00
25664;BME280;13522;50.018;20.014;2022-12-18T07:25:47;100831.86;;;-4.01;100.00
25664;BME280;13522;50.018;20.014;2022-12-18T07:28:59;100838.77;;;-3.96;100.00
25664;BME280;13522;50.018;20.014;2022-12-18T07:32:11;100845.68;;;-3.92;100.00
25664;BME280;13522;50.018;20.014;2022-12-18T07:35:23;100850.02;;;-3.86;100.00
25664;BME280;13522;50.018;20.014;2022-12-18T07:38:36;100836.17;;;-3.91;100.00
25664;BME280;13522;50.018;20.014;2022-12-18T07:41:48;100865.55;;;-3.80;100.00
25664;BME280;13522;50.018;20.014;2022-12-18T07:45:12;100870.75;;;-3.77;100.00
25664;BME280;13522;50.018;20.014;2022-12-18T07:48:24;100869.00;;;-3.69;100.00
25664;BME280;13522;50.018;20.014;2022-12-18T07:51:36;100873.33;;;-3.61;100.00
25664;BME280;13522;50.018;20.014;2022-12-18T07:54:48;100873.28;;;-3.52;100.00
25664;BME280;13522;50.018;20.014;2022-12-18T07:58:02;100876.73;;;-3.45;100.00
25664;BME280;13522;50.018;20.014;2022-12-18T08:01:14;100879.31;;;-3.39;100.00
25664;BME280;13522;50.018;20.014;2022-12-18T08:04:27;100881.89;;;-3.36;100.00
25664;BME280;13522;50.018;20.014;2022-12-18T08:07:39;100881.01;;;-3.32;100.00
25664;BME280;13522;50.018;20.014;2022-12-18T08:10:51;100873.20;;;-3.30;100.00
25664;BME280;13522;50.018;20.014;2022-12-18T08:14:03;100874.92;;;-3.23;100.00
25664;BME280;13522;50.018;20.014;2022-12-18T08:17:15;100886.21;;;-3.29;100.00
25664;BME280;13522;50.018;20.014;2022-12-18T08:20:27;100887.08;;;-3.36;100.00
25664;BME280;13522;50.018;20.014;2022-12-18T08:23:40;100887.95;;;-3.31;100.00
25664;BME280;13522;50.018;20.014;2022-12-18T08:26:53;100887.07;;;-3.34;100.00
25664;BME280;13522;50.018;20.014;2022-12-18T08:30:10;100900.06;;;-3.31;100.00
25664;BME280;13522;50.018;20.014;2022-12-18T08:33:24;100897.42;;;-3.19;100.00
25664;BME280;13522;50.018;20.014;2022-12-18T08:36:36;100900.85;;;-3.14;100.00
25664;BME280;13522;50.018;20.014;2022-12-18T08:39:48;100898.22;;;-3.04;100.00
25664;BME280;13522;50.018;20.014;2022-12-18T08:43:02;100899.94;;;-3.00;100.00
25664;BME280;13522;50.018;20.014;2022-12-18T08:46:35;100903.37;;;-2.92;100.00
25664;BME280;13522;50.018;20.014;2022-12-18T08:49:49;100900.70;;;-2.80;100.00
25664;BME280;13522;50.018;20.014;2022-12-18T08:53:03;100904.98;;;-2.73;100.00
25664;BME280;13522;50.018;20.014;2022-12-18T08:56:16;100906.67;;;-2.62;100.00
25664;BME280;13522;50.018;20.014;2022-12-18T08:59:29;100909.23;;;-2.56;100.00
25664;BME280;13522;50.018;20.014;2022-12-18T09:02:42;100914.34;;;-2.43;100.00
25664;BME280;13522;50.018;20.014;2022-12-18T09:05:55;100916.06;;;-2.40;100.00
25664;BME280;13522;50.018;20.014;2022-12-18T09:09:08;100925.50;;;-2.24;100.00
25664;BME280;13522;50.018;20.014;2022-12-18T09:12:21;100918.59;;;-2.28;100.00
25664;BME280;13522;50.018;20.014;2022-12-18T09:15:33;100910.87;;;-2.40;100.00
25664;BME280;13522;50.018;20.014;2022-12-18T09:18:45;100911.67;;;-2.32;100.00
25664;BME280;13522;50.018;20.014;2022-12-18T09:21:59;100922.96;;;-2.35;100.00
25664;BME280;13522;50.018;20.014;2022-12-18T09:25:12;100928.16;;;-2.35;99.67
25664;BME280;13522;50.018;20.014;2022-12-18T09:28:24;100928.86;;;-2.12;99.37
25664;BME280;13522;50.018;20.014;2022-12-18T09:31:36;100925.36;;;-2.08;98.05
25664;BME280;13522;50.018;20.014;2022-12-18T09:34:48;100933.99;;;-2.01;97.39
25664;BME280;13522;50.018;20.014;2022-12-18T09:38:00;100928.64;;;-1.83;97.53
25664;BME280;13522;50.018;20.014;2022-12-18T09:41:22;100926.77;;;-1.69;96.77
25664;BME280;13522;50.018;20.014;2022-12-18T09:44:43;100920.52;;;-1.51;96.56
25664;BME280;13522;50.018;20.014;2022-12-18T09:47:58;100918.72;;;-1.46;96.44
25664;BME280;13522;50.018;20.014;2022-12-18T09:51:15;100919.50;;;-1.38;96.07
25664;BME280;13522;50.018;20.014;2022-12-18T09:54:32;100931.53;;;-1.27;95.19
25664;BME280;13522;50.018;20.014;2022-12-18T09:57:51;100931.55;;;-1.28;93.25
25664;BME280;13522;50.018;20.014;2022-12-18T10:01:10;100924.70;;;-1.35;93.13
25664;BME280;13522;50.018;20.014;2022-12-18T10:04:24;100933.34;;;-1.32;93.56
25664;BME280;13522;50.018;20.014;2022-12-18T10:07:53;100931.91;;;-1.61;94.87
25664;BME280;13522;50.018;20.014;2022-12-18T10:11:24;100923.15;;;-1.53;94.50
25664;BME280;13522;50.018;20.014;2022-12-18T10:14:48;100926.73;;;-1.66;95.56
25664;BME280;13522;50.018;20.014;2022-12-18T10:18:06;100929.25;;;-1.58;94.98
25664;BME280;13522;50.018;20.014;2022-12-18T10:21:30;100929.28;;;-1.60;94.93
25664;BME280;13522;50.018;20.014;2022-12-18T10:24:47;100937.14;;;-1.63;95.48
25664;BME280;13522;50.018;20.014;2022-12-18T10:28:09;100930.23;;;-1.67;94.91
25664;BME280;13522;50.018;20.014;2022-12-18T10:31:26;100927.60;;;-1.65;94.87
25664;BME280;13522;50.018;20.014;2022-12-18T10:34:41;100932.84;;;-1.67;94.16
25664;BME280;13522;50.018;20.014;2022-12-18T10:38:07;100918.97;;;-1.72;95.77
25664;BME280;13522;50.018;20.014;2022-12-18T10:41:31;100904.96;;;-1.60;95.52
25664;BME280;13522;50.018;20.014;2022-12-18T10:44:44;100904.84;;;-1.47;94.24
25664;BME280;13522;50.018;20.014;2022-12-18T10:47:56;100916.97;;;-1.43;93.06
25664;BME280;13522;50.018;20.014;2022-12-18T10:51:09;100920.33;;;-1.33;93.24
25664;BME280;13522;50.018;20.014;2022-12-18T10:54:23;100906.39;;;-1.29;92.59
25664;BME280;13522;50.018;20.014;2022-12-18T10:57:37;100902.91;;;-1.30;91.42
25664;BME280;13522;50.018;20.014;2022-12-18T11:01:04;100901.17;;;-1.29;90.20
25664;BME280;13522;50.018;20.014;2022-12-18T11:04:22;100901.92;;;-1.20;90.16
25664;BME280;13522;50.018;20.014;2022-12-18T11:07:49;100894.03;;;-1.14;90.50
25664;BME280;13522;50.018;20.014;2022-12-18T11:11:03;100891.30;;;-1.03;90.88
25664;BME280;13522;50.018;20.014;2022-12-18T11:14:24;100880.69;;;-0.90;90.87
25664;BME280;13522;50.018;20.014;2022-12-18T11:17:38;100886.42;;;-1.32;91.57
25664;BME280;13522;50.018;20.014;2022-12-18T11:20:55;100879.70;;;-1.51;92.04
25664;BME280;13522;50.018;20.014;2022-12-18T11:24:17;100867.65;;;-1.61;92.60
25664;BME280;13522;50.018;20.014;2022-12-18T11:27:33;100872.73;;;-1.50;93.29
25664;BME280;13522;50.018;20.014;2022-12-18T11:30:45;100870.03;;;-1.41;92.37
25664;BME280;13522;50.018;20.014;2022-12-18T11:34:02;100858.41;;;-1.15;92.43
25664;BME280;13522;50.018;20.014;2022-12-18T11:37:21;100865.97;;;-0.94;90.55
25664;BME280;13522;50.018;20.014;2022-12-18T11:40:37;100871.22;;;-0.37;90.00
25664;BME280;13522;50.018;20.014;2022-12-18T11:43:54;100871.00;;;-0.22;88.75
25664;BME280;13522;50.018;20.014;2022-12-18T11:47:15;100866.61;;;-0.20;86.78
25664;BME280;13522;50.018;20.014;2022-12-18T11:50:39;100878.20;;;-0.38;86.44
25664;BME280;13522;50.018;20.014;2022-12-18T11:53:56;100884.51;;;-0.52;86.14
25664;BME280;13522;50.018;20.014;2022-12-18T11:57:13;100883.67;;;-0.54;86.60
25664;BME280;13522;50.018;20.014;2022-12-18T12:00:27;100876.86;;;-0.64;86.68
25664;BME280;13522;50.018;20.014;2022-12-18T12:03:51;100887.23;;;-0.61;87.50
25664;BME280;13522;50.018;20.014;2022-12-18T12:07:33;100889.28;;;-0.81;87.30
25664;BME280;13522;50.018;20.014;2022-12-18T12:10:55;100886.75;;;-0.87;88.95
25664;BME280;13522;50.018;20.014;2022-12-18T12:14:20;100890.20;;;-0.85;89.07
25664;BME280;13522;50.018;20.014;2022-12-18T12:17:41;100880.77;;;-0.96;89.51
25664;BME280;13522;50.018;20.014;2022-12-18T12:21:00;100882.56;;;-1.01;89.05
25664;BME280;13522;50.018;20.014;2022-12-18T12:24:30;100886.22;;;-1.14;88.81
25664;BME280;13522;50.018;20.014;2022-12-18T12:27:48;100889.69;;;-1.15;91.49
25664;BME280;13522;50.018;20.014;2022-12-18T12:31:07;100886.23;;;-1.17;89.72
25664;BME280;13522;50.018;20.014;2022-12-18T12:34:25;100895.05;;;-1.25;89.38
25664;BME280;13522;50.018;20.014;2022-12-18T12:37:45;100900.20;;;-1.22;90.44
25664;BME280;13522;50.018;20.014;2022-12-18T12:41:04;100911.60;;;-1.29;90.12
25664;BME280;13522;50.018;20.014;2022-12-18T12:44:24;100923.78;;;-1.31;91.77
25664;BME280;13522;50.018;20.014;2022-12-18T12:47:41;100928.13;;;-1.32;92.59
25664;BME280;13522;50.018;20.014;2022-12-18T12:50:54;100923.92;;;-1.46;91.73
25664;BME280;13522;50.018;20.014;2022-12-18T12:54:11;100933.56;;;-1.53;92.85
25664;BME280;13522;50.018;20.014;2022-12-18T12:57:30;100932.79;;;-1.64;94.24
25664;BME280;13522;50.018;20.014;2022-12-18T13:00:46;100938.95;;;-1.71;92.87
25664;BME280;13522;50.018;20.014;2022-12-18T13:04:11;100945.09;;;-1.80;94.46
25664;BME280;13522;50.018;20.014;2022-12-18T13:07:29;100944.29;;;-1.88;93.95
25664;BME280;13522;50.018;20.014;2022-12-18T13:10:45;100952.19;;;-1.97;93.81
25664;BME280;13522;50.018;20.014;2022-12-18T13:13:59;100955.69;;;-2.01;93.26
25664;BME280;13522;50.018;20.014;2022-12-18T13:17:31;100959.19;;;-2.05;93.93
25664;BME280;13522;50.018;20.014;2022-12-18T13:20:46;100951.41;;;-2.09;94.48
25664;BME280;13522;50.018;20.014;2022-12-18T13:24:15;100960.97;;;-2.11;93.72
25664;BME280;13522;50.018;20.014;2022-12-18T13:28:13;100963.61;;;-2.14;93.60
25664;BME280;13522;50.018;20.014;2022-12-18T13:32:00;100962.73;;;-2.18;94.17
25664;BME280;13522;50.018;20.014;2022-12-18T13:35:40;100959.33;;;-2.24;94.03
25664;BME280;13522;50.018;20.014;2022-12-18T13:39:24;100965.44;;;-2.31;95.58
25664;BME280;13522;50.018;20.014;2022-12-18T13:42:44;100974.18;;;-2.40;96.19
25664;BME280;13522;50.018;20.014;2022-12-18T13:46:26;100988.95;;;-2.46;95.38
25664;BME280;13522;50.018;20.014;2022-12-18T13:49:40;100972.60;;;-2.70;96.21
25664;BME280;13522;50.018;20.014;2022-12-18T13:52:54;100992.53;;;-2.73;97.52
25664;BME280;13522;50.018;20.014;2022-12-18T13:56:10;100999.55;;;-2.92;98.09
25664;BME280;13522;50.018;20.014;2022-12-18T13:59:34;101001.30;;;-2.98;99.37
25664;BME280;13522;50.018;20.014;2022-12-18T14:02:50;100956.37;;;-3.35;99.37
25664;BME280;13522;50.018;20.014;2022-12-18T14:06:06;101004.82;;;-3.22;99.14
25664;BME280;13522;50.018;20.014;2022-12-18T14:09:25;101005.72;;;-3.29;99.70
25664;BME280;13522;50.018;20.014;2022-12-18T14:12:40;101019.58;;;-3.39;100.00
25664;BME280;13522;50.018;20.014;2022-12-18T14:16:15;101017.84;;;-3.47;100.00
25664;BME280;13522;50.018;20.014;2022-12-18T14:19:28;101018.72;;;-3.65;100.00
25664;BME280;13522;50.018;20.014;2022-12-18T14:22:44;101029.11;;;-3.79;100.00
25664;BME280;13522;50.018;20.014;2022-12-18T14:25:57;101032.53;;;-3.92;100.00
25664;BME280;13522;50.018;20.014;2022-12-18T14:29:23;101030.78;;;-4.11;100.00
25664;BME280;13522;50.018;20.014;2022-12-18T14:32:36;101038.55;;;-4.15;100.00
25664;BME280;13522;50.018;20.014;2022-12-18T14:35:57;101025.58;;;-4.26;100.00
25664;BME280;13522;50.018;20.014;2022-12-18T14:39:16;101029.88;;;-4.32;100.00
25664;BME280;13522;50.018;20.014;2022-12-18T14:42:30;101035.89;;;-4.43;100.00
25664;BME280;13522;50.018;20.014;2022-12-18T14:45:43;101047.95;;;-4.52;100.00
25664;BME280;13522;50.018;20.014;2022-12-18T14:48:57;101048.78;;;-4.61;100.00
25664;BME280;13522;50.018;20.014;2022-12-18T14:52:20;101060.87;;;-4.66;100.00
25664;BME280;13522;50.018;20.014;2022-12-18T14:55:33;101060.84;;;-4.72;100.00
25664;BME280;13522;50.018;20.014;2022-12-18T14:58:51;101069.42;;;-4.82;100.00
25664;BME280;13522;50.018;20.014;2022-12-18T15:02:10;101060.70;;;-4.93;100.00
25664;BME280;13522;50.018;20.014;2022-12-18T15:05:29;101046.00;;;-4.98;100.00
25664;BME280;13522;50.018;20.014;2022-12-18T15:08:42;101043.33;;;-5.09;100.00
25664;BME280;13522;50.018;20.014;2022-12-18T15:11:58;101046.80;;;-5.10;100.00
25664;BME280;13522;50.018;20.014;2022-12-18T15:19:03;101064.05;;;-5.15;100.00
25664;BME280;13522;50.018;20.014;2022-12-18T15:22:24;101065.63;;;-5.35;100.00
25664;BME280;13522;50.018;20.014;2022-12-18T15:25:39;101062.08;;;-5.45;100.00
25664;BME280;13522;50.018;20.014;2022-12-18T15:28:51;101060.25;;;-5.58;100.00
25664;BME280;13522;50.018;20.014;2022-12-18T15:32:15;101061.91;;;-5.66;100.00
25664;BME280;13522;50.018;20.014;2022-12-18T15:35:28;101066.31;;;-5.56;100.00
25664;BME280;13522;50.018;20.014;2022-12-18T15:38:40;101073.96;;;-5.69;100.00
25664;BME280;13522;50.018;20.014;2022-12-18T15:41:54;101082.48;;;-5.79;100.00
25664;BME280;13522;50.018;20.014;2022-12-18T15:45:19;101091.95;;;-5.83;100.00
25664;BME280;13522;50.018;20.014;2022-12-18T15:48:33;101088.51;;;-5.86;100.00
25664;BME280;13522;50.018;20.014;2022-12-18T15:51:50;101096.14;;;-5.97;100.00
25664;BME280;13522;50.018;20.014;2022-12-18T15:55:08;101104.66;;;-6.07;100.00
25664;BME280;13522;50.018;20.014;2022-12-18T15:58:36;101097.70;;;-6.12;100.00
25664;BME280;13522;50.018;20.014;2022-12-18T16:01:49;101102.73;;;-6.26;100.00
25664;BME280;13522;50.018;20.014;2022-12-18T16:05:05;101103.41;;;-6.39;100.00
25664;BME280;13522;50.018;20.014;2022-12-18T16:08:21;101104.29;;;-6.39;100.00
25664;BME280;13522;50.018;20.014;2022-12-18T16:11:35;101106.89;;;-6.36;100.00
25664;BME280;13522;50.018;20.014;2022-12-18T16:14:48;101110.26;;;-6.44;100.00
25664;BME280;13522;50.018;20.014;2022-12-18T16:18:01;101123.02;;;-6.56;100.00
25664;BME280;13522;50.018;20.014;2022-12-18T16:21:13;101126.40;;;-6.62;100.00
25664;BME280;13522;50.018;20.014;2022-12-18T16:24:28;101117.76;;;-6.64;100.00
25664;BME280;13522;50.018;20.014;2022-12-18T16:27:42;101114.28;;;-6.66;100.00
25664;BME280;13522;50.018;20.014;2022-12-18T16:30:56;101135.67;;;-6.76;100.00
25664;BME280;13522;50.018;20.014;2022-12-18T16:34:18;101138.09;;;-6.86;100.00
25664;BME280;13522;50.018;20.014;2022-12-18T16:37:34;101134.60;;;-6.90;100.00
25664;BME280;13522;50.018;20.014;2022-12-18T16:40:46;101134.60;;;-6.90;100.00
25664;BME280;13522;50.018;20.014;2022-12-18T16:44:13;101143.15;;;-6.94;100.00
25664;BME280;13522;50.018;20.014;2022-12-18T16:47:26;101149.91;;;-7.02;100.00